Carlos Ibañez

Chefscout - Las Palmas
4 Apr 2027
Sonntag
Verarbeitung

Persönlichkeit

Anpassungsfähigkeit (17) Ehrgeiz (10) Kontroverse (17) Loyalität (9) Druck (9) Professionalität (17) Fairness (10) Temperament (7)

Profil

Trainerstil Demokratisch
Lizenz Kontinentale Pro
Entschlossenheit 8
Menschenführung 12
Motivation 9
Disziplin 5
Arbeitszufriedenheit
60%
Ermüdung
0%
Rolle Chefscout
Gehalt 84.8K p/W
Vertrag 14.03.2030

Leistung

Verhalten Gut
Trainingseffektivität
26%
Spielerentwicklung
20%
Verletzungsprävention
35%
Taktische Umsetzung
55%

Letzte Ereignisse

Nahm an einer Scouting-Besprechung teil jetzt
Empfahl ein Transferziel jetzt
Nahm an einer Scouting-Besprechung teil jetzt
Empfahl ein Transferziel jetzt
Empfahl ein Transferziel jetzt
Empfahl ein Transferziel jetzt
Empfahl ein Transferziel jetzt
Empfahl ein Transferziel jetzt

Aktuell beobachtet

178
Spieler Verein Status Fähigkeit Vertrauen Beobachtet Zuletzt beobachtet Letzte Stimme
Arturo Cipriani Astra Aktiv 140 / 142 40% 6 27.03.2027 -
Ivan Edson Veracruz Aktiv 131 / 134 40% 6 27.03.2027 -
Michal Sadílek Slavia Prague Aktiv 130 / 134 40% 4 26.03.2027 -
David Zima Slavia Prague Aktiv 129 / 131 40% 3 26.03.2027 -
Pedro Vite Pumas UNAM Aktiv 127 / 127 40% 8 26.03.2027 -
Arjan Malić Sturm Graz Aktiv 115 / 123 40% 2 26.03.2027 -
Luca Barani Forli Aktiv 89 / 94 40% 1 26.03.2027 -
Joseph Namatane FC Metz Aktiv 92 / 96 40% 1 26.03.2027 -
José Pachuca Puebla Aktiv 105 / 119 40% 2 25.03.2027 -
Simone Kosijer Triestina Aktiv 93 / 103 40% 1 25.03.2027 -
Sampson Dweh Viktoria Plzen Aktiv 141 / 142 66% 2 23.03.2027 Beobachten
César Ibáñez Huracán Aktiv 130 / 129 40% 2 23.03.2027 -
Jiří Boula Banik Ostrava Aktiv 128 / 133 40% 5 21.03.2027 -
Sergio Quintero La Equidad Aktiv 138 / 144 40% 8 19.03.2027 -
Pablo Maia Sport Recife Aktiv 124 / 131 40% 4 19.03.2027 -
Gastón Benedetti Estudiantes Aktiv 120 / 127 40% 2 19.03.2027 -
Antonio Pacheco Albacete Aktiv 122 / 120 40% 2 19.03.2027 -
João Teixeira Porto Aktiv 109 / 113 40% 1 19.03.2027 -
Camilo Rey Domenech Boca Juniors Aktiv 117 / 125 40% 2 16.03.2027 -
Ki-Jana Hoever Sparta Prague Aktiv 129 / 132 40% 8 16.03.2027 -
Magnus Kofod Andersen Sparta Prague Aktiv 128 / 131 40% 2 16.03.2027 -
Tiago Freitas Benfica Aktiv 112 / 112 40% 2 16.03.2027 -
Santiago Núñez Estudiantes Aktiv 129 / 128 40% 1 16.03.2027 -
Tiago Gordillo San Miguel Aktiv 86 / 95 40% 1 16.03.2027 -
Jon Garro Real Sociedad Abgelehnt 88 / 89 67% 1 14.03.2027 Ablehnen
Diego Pavia Lanús Aktiv 105 / 103 40% 1 14.03.2027 -
Marcos López San Martín Aktiv 130 / 137 40% 12 12.03.2027 -
Cauan Barros Vasco da Gama Aktiv 134 / 123 40% 6 12.03.2027 -
Felipe Peña Biafore Lanús Aktiv 129 / 131 40% 1 12.03.2027 -
Tomás Händel Crvena Zvezda Aktiv 125 / 122 40% 11 11.03.2027 -
Lorenzo Pirola Olympiacos Aktiv 135 / 136 40% 2 11.03.2027 -
Bernardo Vital Jagiellonia Aktiv 126 / 131 40% 1 11.03.2027 -
Karel Spáčil Viktoria Plzen Aktiv 131 / 123 40% 3 08.03.2027 -
Nathan Wood Southampton Aktiv 126 / 126 40% 1 08.03.2027 -
Nazareno Colombo Racing Club Aktiv 125 / 130 40% 2 07.03.2027 -
Armin Gigović Young Boys Aktiv 128 / 128 40% 1 07.03.2027 -
Sabil Hansen Randers Aktiv 106 / 104 40% 1 05.03.2027 -
Juan Pablo De la Reta Maipú Aktiv 106 / 123 40% 1 05.03.2027 -
Martim Cunha Porto Aktiv 96 / 107 40% 1 05.03.2027 -
Santiago González Tigre Aktiv 128 / 129 40% 6 03.03.2027 -
Lautaro Rivero River Plate Aktiv 123 / 133 40% 1 03.03.2027 -
Luke Thomas Leicester City Aktiv 128 / 125 40% 1 03.03.2027 -
Agustín Medina Lanús Aktiv 121 / 131 40% 1 03.03.2027 -
Leandro Martins Benfica Aktiv 96 / 97 40% 1 03.03.2027 -
Raymond Agyemang Aduana Stars Aktiv 79 / 85 40% 1 03.03.2027 -
Matías Galarza Talleres Aktiv 126 / 135 40% 7 01.03.2027 -
Gonçalo Oliveira Benfica Aktiv 105 / 112 40% 1 01.03.2027 -
Halam Loboa Independiente Medellin Aktiv 115 / 137 40% 1 01.03.2027 -
Junnosuke Suzuki FC Copenhagen Aktiv 135 / 144 40% 1 27.02.2027 -
Luis Binks Brondby Aktiv 125 / 121 40% 1 27.02.2027 -
Markus Karlsson Hammarby Abgelehnt 126 / 115 40% 3 25.02.2027 Ablehnen
Mohamed Ali Ben Romdhane Al Ahly Aktiv 124 / 138 40% 8 24.02.2027 -
Jon Ander Olasagasti Levante Aktiv 129 / 129 40% 4 24.02.2027 -
Eliás Montiel Pachuca Aktiv 128 / 136 40% 8 20.02.2027 -
Franco Ibarra Rosario Central Aktiv 128 / 122 40% 9 19.02.2027 -
Luther Billiat Ajax Cape Town Aktiv 134 / 127 40% 2 18.02.2027 -
Victor Bak FC Midtjylland Aktiv 129 / 132 40% 3 14.02.2027 -
Lukas Mai Lugano Aktiv 130 / 124 40% 1 14.02.2027 -
Volodymyr Brazhko Dynamo Kyiv Aktiv 122 / 124 40% 5 12.02.2027 -
Uran Bislimi Lugano Aktiv 121 / 127 40% 1 12.02.2027 -
Filipe Relvas AEK Aktiv 133 / 131 40% 1 08.02.2027 -
José Luis Caicedo Barranquilla Aktiv 125 / 124 40% 6 07.02.2027 -
Ruslan Litvinov Spartak Moscow Aktiv 130 / 125 40% 1 07.02.2027 -
Jesús Orozco Chiquete Cruz Azul Aktiv 127 / 136 40% 1 06.02.2027 -
Simone Santoro Modena Aktiv 125 / 129 40% 1 04.02.2027 -
Luis Palma Lech Aktiv 122 / 115 40% 3 25.01.2027 -
Sergi Guardiola Córdoba Aktiv 117 / 110 83% 1 25.01.2027 Befürworten
Diego Valencia Gornik Leczna Aktiv 108 / 104 40% 1 25.01.2027 -
Pavel Meleshin Sochi Aktiv 118 / 114 40% 1 25.01.2027 -
Yegor Golenkov Rostov Aktiv 119 / 116 40% 1 24.01.2027 -
Duk Atlas Verloren 116 / 110 40% 1 24.01.2027 -
Yoshan Valois Lanús Aktiv 115 / 126 40% 1 24.01.2027 -
Fredrik Sjøvold Anderlecht Aktiv 132 / 136 64% 1 18.01.2027 Befürworten
Álex Marchal Real Sociedad Aktiv 105 / 111 83% 1 18.01.2027 Befürworten
César Pérez Defensa y Justicia Aktiv 123 / 119 40% 2 17.01.2027 -
Dmytro Kryskiv Shakhtar Aktiv 120 / 116 40% 6 15.01.2027 -
Eric Meza Estudiantes Aktiv 130 / 116 40% 1 13.01.2027 -
Taichi Fukui Arouca Aktiv 126 / 126 40% 1 12.01.2027 -
Bruno Méndez Toluca Aktiv 127 / 126 40% 2 11.01.2027 -
Joaquín García Vélez Aktiv 123 / 120 40% 4 11.01.2027 -
Jacques Siwe Rubin Aktiv 111 / 121 40% 1 11.01.2027 -
Gabriel Charpentier Cracovia Verloren 111 / 121 40% 1 11.01.2027 -
Sergio Barreto Pachuca Aktiv 133 / 125 40% 3 10.01.2027 -
Mao Hosoya Corinthians Bericht bereit 134 / 135 67% 1 01.01.2027 Befürworten
Kota Tawaratsumida FC Tokyo Bericht bereit 133 / 136 66% 1 01.01.2027 Befürworten
Francisco Álvarez Argentinos Juniors Aktiv 127 / 123 40% 2 31.12.2026 -
Tomás Silva Platense Aktiv 122 / 132 40% 2 31.12.2026 -
Giuliano Galoppo River Plate Aktiv 125 / 120 40% 7 29.12.2026 -
Ibrahim Tarek Masr El Makasa Aktiv 122 / 125 40% 3 29.12.2026 -
Emil Ceïde Rosenborg Aktiv 132 / 127 40% 6 28.12.2026 -
Paulo Moreira Farense Aktiv 126 / 121 40% 3 28.12.2026 -
Kimito Nono Gamba Osaka Aktiv 132 / 126 40% 7 27.12.2026 -
Ali Soliman Masr El Makasa Aktiv 119 / 116 40% 5 27.12.2026 -
Alejandro Piedrahita Deportivo Pereira Aktiv 125 / 123 40% 9 26.12.2026 -
Daniel Karlsbakk Sarpsborg 08 Aktiv 131 / 134 40% 3 25.12.2026 -
Bryan González Guadalajara Aktiv 127 / 125 40% 5 24.12.2026 -
Santiago Montiel Independiente Aktiv 121 / 117 40% 1 24.12.2026 -
Jeremy Márquez Cruz Azul Aktiv 128 / 123 40% 6 23.12.2026 -
César Araújo Tigres Aktiv 127 / 124 40% 7 20.12.2026 -
Jeon Jin-Woo Albirex Niigata Aktiv 129 / 120 40% 3 17.12.2026 -
Abubakr Barry Red Bull Salzburg Aktiv 123 / 124 40% 3 17.12.2026 -
Peter Federico Gornik Zabrze Aktiv 129 / 123 40% 3 16.12.2026 -
Odin Bjørtuft Bodo/Glimt Aktiv 133 / 123 40% 2 09.12.2026 -
Dion Beljo Dinamo Zagreb Aktiv 127 / 138 40% 2 03.12.2026 -
Luís Guilherme Sporting CP Aktiv 128 / 131 40% 1 01.12.2026 -
Kristian Arnstad AGF Aktiv 124 / 133 40% 4 29.11.2026 -
Tojiro Kubo Kashiwa Reysol Aktiv 129 / 129 40% 2 29.11.2026 -
Erison Kawasaki Frontale Aktiv 125 / 138 40% 1 27.11.2026 -
Alex Luna Instituto Aktiv 129 / 138 40% 4 26.11.2026 -
Tobias Bech AGF Aktiv 124 / 133 40% 1 26.11.2026 -
Michal Kohút Banik Ostrava Aktiv 121 / 129 40% 1 18.11.2026 -
Vinicius Tobias Shakhtar Aktiv 126 / 123 40% 2 13.11.2026 -
Fiete Arp OB Aktiv 134 / 134 40% 1 12.11.2026 -
Oleksandr Nazarenko Polissia Aktiv 130 / 118 40% 1 12.11.2026 -
Ole-Didrik Blomberg Bodo/Glimt Aktiv 126 / 130 40% 3 09.11.2026 -
Jens Petter Hauge Bodo/Glimt Aktiv 134 / 143 40% 3 09.11.2026 -
Henrik Falchener Viking Aktiv 128 / 117 40% 1 08.11.2026 -
Kaito Yasui Vissel Kobe Aktiv 133 / 129 40% 2 06.11.2026 -
Kauã Elias Shakhtar Aktiv 126 / 126 40% 2 05.11.2026 -
Lautaro Blanco Boca Juniors Aktiv 133 / 117 40% 2 05.11.2026 -
Conrad Wallem Valerenga Aktiv 128 / 134 40% 3 23.10.2026 -
Pedro Bicalho Qarabag Aktiv 131 / 128 40% 1 20.10.2026 -
Eguinaldo Shakhtar Aktiv 131 / 131 40% 1 16.10.2026 -
Hirokazu Ishihara FC Tokyo Aktiv 126 / 127 40% 1 05.10.2026 -
Efraín Álvarez Guadalajara Aktiv 129 / 131 40% 1 27.09.2026 -
Brian Rodríguez Club America Aktiv 126 / 127 40% 1 26.09.2026 -
Riku Handa Gamba Osaka Aktiv 132 / 125 40% 1 25.09.2026 -
César Huerta Pumas UNAM Aktiv 130 / 123 40% 1 23.09.2026 -
Nahuel Herrera Penarol Aktiv 129 / 130 40% 3 22.09.2026 -
Santiago Fernández Talleres Aktiv 116 / 131 40% 2 22.09.2026 -
Marlon Gomes Shakhtar Aktiv 131 / 130 40% 1 22.09.2026 -
Santiago Sosa Yung Defensa y Justicia Aktiv 119 / 117 40% 2 21.09.2026 -
Gaetano Motta Patronato Aktiv 92 / 95 40% 1 21.09.2026 -
Francisco Lencinas Patronato Aktiv 89 / 107 40% 2 18.09.2026 -
Agustín Obregón River Plate Aktiv 99 / 118 40% 1 18.09.2026 -
Ibrahim Adel FC Nordsjaelland Aktiv 118 / 126 40% 1 18.09.2026 -
Alexandro Bernabei Internacional Aktiv 132 / 125 40% 1 17.09.2026 -
Facundo Di Biasi Gimnasia La Plata Aktiv 123 / 122 40% 2 16.09.2026 -
Tiago Dantas HNK Rijeka Aktiv 128 / 134 40% 1 16.09.2026 -
Santino Bima Huracán Aktiv 86 / 98 40% 2 13.09.2026 -
Santiago Cena Veracruz Aktiv 105 / 106 40% 2 13.09.2026 -
Ezequiel Burdin Defensa y Justicia Aktiv 99 / 111 40% 4 12.09.2026 -
Alan Lescano Argentinos Juniors Aktiv 122 / 127 40% 1 12.09.2026 -
Alejo Fernández Kayserispor Aktiv 96 / 110 40% 1 10.09.2026 -
Franco Casuriaga Cerrito Aktiv 95 / 97 40% 1 10.09.2026 -
Lorenzo Couture Penarol Aktiv 91 / 94 40% 1 09.09.2026 -
Benjamín Ilama Uruguay Montevideo Aktiv 91 / 96 40% 1 08.09.2026 -
Adrián Sánchez Belgrano Aktiv 123 / 113 40% 1 08.09.2026 -
Fidel Ambríz Monterrey Aktiv 126 / 133 40% 1 08.09.2026 -
Lucas Agazzi Defensor Sporting Aktiv 115 / 135 40% 1 02.09.2026 -
Juan Fernándes Pinto Almagro Aktiv 94 / 114 40% 1 02.09.2026 -
Daniel Falcao La Equidad Aktiv 103 / 124 40% 1 01.09.2026 -
Salomón Rondón Pachuca Aktiv 137 / 135 40% 1 31.08.2026 -
Tomás Molina Argentinos Juniors Aktiv 136 / 126 40% 1 31.08.2026 -
Galo Galarza Estudiantes Aktiv 97 / 97 40% 1 30.08.2026 -
Ignacio Ovando Rosario Central Aktiv 106 / 117 40% 1 28.08.2026 -
Valentino Massi Sarmiento Aktiv 87 / 107 40% 1 28.08.2026 -
Bautista Castreje Racing Club Aktiv 87 / 92 40% 1 27.08.2026 -
Ignacio Isla Unión de Santa Fe Aktiv 95 / 101 40% 1 26.08.2026 -
Florián Monzón Atlas Aktiv 121 / 124 40% 1 20.08.2026 -
Pepe Sánchez Albacete Aktiv 108 / 114 76% 1 10.08.2026 Befürworten
Nicolás Ibáñez Cruz Azul Aktiv 134 / 137 40% 1 10.08.2026 -
Ismael Díaz Leon Aktiv 130 / 128 40% 1 07.08.2026 -
Ángel Sepúlveda Guadalajara Aktiv 128 / 127 40% 1 07.08.2026 -
Maximiliano Gómez Nacional Aktiv 125 / 113 40% 1 07.08.2026 -
Joaquín Correa Estudiantes Aktiv 136 / 125 40% 1 06.08.2026 -
Facundo Suárez Instituto Aktiv 123 / 125 40% 1 06.08.2026 -
Roberto de la Rosa Monterrey Aktiv 118 / 119 40% 1 05.08.2026 -
Álex Arce Independiente Rivadavia Aktiv 133 / 117 40% 1 05.08.2026 -
Octavio Ontivero Lanús Aktiv 109 / 111 40% 1 04.08.2026 -
Lucas Richarte Temperley Aktiv 106 / 105 40% 1 04.08.2026 -
Kevin Medina Córdoba Aktiv 122 / 114 76% 1 03.08.2026 Befürworten
Diego Rossi Monterrey Aktiv 137 / 131 40% 1 03.08.2026 -
Alfredo Morelos Atletico Nacional Aktiv 121 / 132 40% 1 03.08.2026 -
Miguel Borja Club America Aktiv 125 / 132 40% 1 03.08.2026 -
Justo Giani Universidad Catolica Aktiv 121 / 127 40% 1 02.08.2026 -
Nicolás Cordero Aldosivi Aktiv 115 / 112 40% 1 02.08.2026 -
Tomás Conechny Racing Club Aktiv 125 / 125 40% 1 02.08.2026 -